sensor_id;sensor_type;location;lat;lon;timestamp;P1;durP1;ratioP1;P2;durP2;ratioP2
14040;SDS011;7095;51.388;6.196;2023-03-15T00:01:45;9.13;;;3.87;;
14040;SDS011;7095;51.388;6.196;2023-03-15T00:04:14;8.57;;;3.73;;
14040;SDS011;7095;51.388;6.196;2023-03-15T00:06:44;6.53;;;3.47;;
14040;SDS011;7095;51.388;6.196;2023-03-15T00:09:12;9.47;;;3.53;;
14040;SDS011;7095;51.388;6.196;2023-03-15T00:11:40;13.67;;;4.37;;
14040;SDS011;7095;51.388;6.196;2023-03-15T00:14:09;13.27;;;4.23;;
14040;SDS011;7095;51.388;6.196;2023-03-15T00:16:37;7.87;;;4.13;;
14040;SDS011;7095;51.388;6.196;2023-03-15T00:19:08;14.33;;;4.70;;
14040;SDS011;7095;51.388;6.196;2023-03-15T00:21:40;16.67;;;4.73;;
14040;SDS011;7095;51.388;6.196;2023-03-15T00:24:11;9.57;;;4.83;;
14040;SDS011;7095;51.388;6.196;2023-03-15T00:26:39;17.87;;;5.10;;
14040;SDS011;7095;51.388;6.196;2023-03-15T00:29:08;14.03;;;4.80;;
14040;SDS011;7095;51.388;6.196;2023-03-15T00:31:36;11.73;;;5.03;;
14040;SDS011;7095;51.388;6.196;2023-03-15T00:34:05;12.60;;;4.63;;
14040;SDS011;7095;51.388;6.196;2023-03-15T00:36:33;9.97;;;4.80;;
14040;SDS011;7095;51.388;6.196;2023-03-15T00:39:01;17.93;;;5.57;;
14040;SDS011;7095;51.388;6.196;2023-03-15T00:41:33;10.40;;;4.33;;
14040;SDS011;7095;51.388;6.196;2023-03-15T00:44:01;12.60;;;4.90;;
14040;SDS011;7095;51.388;6.196;2023-03-15T00:46:30;11.50;;;4.83;;
14040;SDS011;7095;51.388;6.196;2023-03-15T00:48:59;12.23;;;4.93;;
14040;SDS011;7095;51.388;6.196;2023-03-15T00:51:27;13.47;;;5.40;;
14040;SDS011;7095;51.388;6.196;2023-03-15T00:53:56;12.60;;;5.27;;
14040;SDS011;7095;51.388;6.196;2023-03-15T00:56:24;16.53;;;7.13;;
14040;SDS011;7095;51.388;6.196;2023-03-15T00:58:58;18.57;;;7.43;;
14040;SDS011;7095;51.388;6.196;2023-03-15T01:01:28;18.07;;;7.10;;
14040;SDS011;7095;51.388;6.196;2023-03-15T01:03:57;14.73;;;7.63;;
14040;SDS011;7095;51.388;6.196;2023-03-15T01:06:26;19.00;;;7.77;;
14040;SDS011;7095;51.388;6.196;2023-03-15T01:08:57;15.90;;;7.80;;
14040;SDS011;7095;51.388;6.196;2023-03-15T01:11:27;16.20;;;7.30;;
14040;SDS011;7095;51.388;6.196;2023-03-15T01:13:57;21.30;;;8.00;;
14040;SDS011;7095;51.388;6.196;2023-03-15T01:16:26;15.57;;;7.50;;
14040;SDS011;7095;51.388;6.196;2023-03-15T01:18:55;18.93;;;8.07;;
14040;SDS011;7095;51.388;6.196;2023-03-15T01:21:24;15.30;;;9.17;;
14040;SDS011;7095;51.388;6.196;2023-03-15T01:23:52;20.60;;;9.40;;
14040;SDS011;7095;51.388;6.196;2023-03-15T01:26:22;16.57;;;8.90;;
14040;SDS011;7095;51.388;6.196;2023-03-15T01:28:50;21.87;;;9.23;;
14040;SDS011;7095;51.388;6.196;2023-03-15T01:31:21;19.80;;;10.00;;
14040;SDS011;7095;51.388;6.196;2023-03-15T01:33:51;19.80;;;11.43;;
14040;SDS011;7095;51.388;6.196;2023-03-15T01:36:20;16.43;;;10.97;;
14040;SDS011;7095;51.388;6.196;2023-03-15T01:38:49;18.17;;;11.50;;
14040;SDS011;7095;51.388;6.196;2023-03-15T01:41:23;21.30;;;11.23;;
14040;SDS011;7095;51.388;6.196;2023-03-15T01:43:53;24.27;;;11.17;;
14040;SDS011;7095;51.388;6.196;2023-03-15T01:46:30;22.60;;;11.40;;
14040;SDS011;7095;51.388;6.196;2023-03-15T01:49:19;30.97;;;10.73;;
14040;SDS011;7095;51.388;6.196;2023-03-15T01:51:53;20.40;;;12.00;;
14040;SDS011;7095;51.388;6.196;2023-03-15T01:54:32;22.13;;;11.40;;
14040;SDS011;7095;51.388;6.196;2023-03-15T01:57:08;24.33;;;12.23;;
14040;SDS011;7095;51.388;6.196;2023-03-15T01:59:41;24.43;;;12.97;;
14040;SDS011;7095;51.388;6.196;2023-03-15T02:02:17;22.87;;;12.83;;
14040;SDS011;7095;51.388;6.196;2023-03-15T02:04:49;23.23;;;13.43;;
14040;SDS011;7095;51.388;6.196;2023-03-15T02:07:24;27.93;;;13.10;;
14040;SDS011;7095;51.388;6.196;2023-03-15T02:09:56;30.97;;;12.73;;
14040;SDS011;7095;51.388;6.196;2023-03-15T02:12:32;18.63;;;11.17;;
14040;SDS011;7095;51.388;6.196;2023-03-15T02:15:05;22.20;;;10.60;;
14040;SDS011;7095;51.388;6.196;2023-03-15T02:17:37;16.03;;;9.03;;
14040;SDS011;7095;51.388;6.196;2023-03-15T02:20:11;12.67;;;7.67;;
14040;SDS011;7095;51.388;6.196;2023-03-15T02:22:46;11.07;;;7.80;;
14040;SDS011;7095;51.388;6.196;2023-03-15T02:25:21;9.47;;;7.60;;
14040;SDS011;7095;51.388;6.196;2023-03-15T02:28:00;8.97;;;7.90;;
14040;SDS011;7095;51.388;6.196;2023-03-15T02:30:30;12.83;;;8.50;;
14040;SDS011;7095;51.388;6.196;2023-03-15T02:32:58;11.77;;;8.97;;
14040;SDS011;7095;51.388;6.196;2023-03-15T02:35:30;16.10;;;9.13;;
14040;SDS011;7095;51.388;6.196;2023-03-15T02:38:00;13.10;;;8.80;;
14040;SDS011;7095;51.388;6.196;2023-03-15T02:40:29;11.70;;;9.20;;
14040;SDS011;7095;51.388;6.196;2023-03-15T02:43:03;14.00;;;9.97;;
14040;SDS011;7095;51.388;6.196;2023-03-15T02:45:33;13.53;;;9.73;;
14040;SDS011;7095;51.388;6.196;2023-03-15T02:48:05;14.83;;;9.80;;
14040;SDS011;7095;51.388;6.196;2023-03-15T02:50:36;14.80;;;10.70;;
14040;SDS011;7095;51.388;6.196;2023-03-15T02:53:05;13.00;;;10.97;;
14040;SDS011;7095;51.388;6.196;2023-03-15T02:55:34;13.03;;;10.53;;
14040;SDS011;7095;51.388;6.196;2023-03-15T02:58:04;16.53;;;10.47;;
14040;SDS011;7095;51.388;6.196;2023-03-15T03:00:33;19.63;;;11.90;;
14040;SDS011;7095;51.388;6.196;2023-03-15T03:03:01;18.10;;;12.43;;
14040;SDS011;7095;51.388;6.196;2023-03-15T03:05:31;22.63;;;13.97;;
14040;SDS011;7095;51.388;6.196;2023-03-15T03:07:59;18.13;;;11.43;;
14040;SDS011;7095;51.388;6.196;2023-03-15T03:10:28;21.53;;;13.40;;
14040;SDS011;7095;51.388;6.196;2023-03-15T03:12:59;20.27;;;13.33;;
14040;SDS011;7095;51.388;6.196;2023-03-15T03:15:35;18.27;;;12.97;;
14040;SDS011;7095;51.388;6.196;2023-03-15T03:18:04;15.47;;;13.00;;
14040;SDS011;7095;51.388;6.196;2023-03-15T03:20:32;19.40;;;14.40;;
14040;SDS011;7095;51.388;6.196;2023-03-15T03:23:00;18.97;;;14.37;;
14040;SDS011;7095;51.388;6.196;2023-03-15T03:25:32;18.07;;;13.77;;
14040;SDS011;7095;51.388;6.196;2023-03-15T03:28:04;20.37;;;14.87;;
14040;SDS011;7095;51.388;6.196;2023-03-15T03:30:33;19.57;;;14.40;;
14040;SDS011;7095;51.388;6.196;2023-03-15T03:33:04;22.57;;;15.60;;
14040;SDS011;7095;51.388;6.196;2023-03-15T03:35:32;18.80;;;14.40;;
14040;SDS011;7095;51.388;6.196;2023-03-15T03:38:01;20.57;;;15.90;;
14040;SDS011;7095;51.388;6.196;2023-03-15T03:40:34;21.37;;;15.77;;
14040;SDS011;7095;51.388;6.196;2023-03-15T03:43:04;20.70;;;14.17;;
14040;SDS011;7095;51.388;6.196;2023-03-15T03:45:33;17.17;;;13.67;;
14040;SDS011;7095;51.388;6.196;2023-03-15T03:48:04;18.10;;;13.23;;
14040;SDS011;7095;51.388;6.196;2023-03-15T03:50:33;19.20;;;12.97;;
14040;SDS011;7095;51.388;6.196;2023-03-15T03:53:02;17.47;;;12.60;;
14040;SDS011;7095;51.388;6.196;2023-03-15T03:55:33;19.97;;;13.33;;
14040;SDS011;7095;51.388;6.196;2023-03-15T03:58:01;18.23;;;13.77;;
14040;SDS011;7095;51.388;6.196;2023-03-15T04:00:43;17.70;;;13.93;;
14040;SDS011;7095;51.388;6.196;2023-03-15T04:03:13;19.90;;;13.73;;
14040;SDS011;7095;51.388;6.196;2023-03-15T04:05:46;20.40;;;14.07;;
14040;SDS011;7095;51.388;6.196;2023-03-15T04:08:18;20.63;;;14.97;;
14040;SDS011;7095;51.388;6.196;2023-03-15T04:10:51;18.90;;;14.97;;
14040;SDS011;7095;51.388;6.196;2023-03-15T04:13:21;21.73;;;15.10;;
14040;SDS011;7095;51.388;6.196;2023-03-15T04:15:51;18.27;;;13.57;;
14040;SDS011;7095;51.388;6.196;2023-03-15T04:18:28;17.60;;;13.77;;
14040;SDS011;7095;51.388;6.196;2023-03-15T04:20:56;21.57;;;15.13;;
14040;SDS011;7095;51.388;6.196;2023-03-15T04:23:25;22.27;;;15.20;;
14040;SDS011;7095;51.388;6.196;2023-03-15T04:26:16;21.07;;;15.07;;
14040;SDS011;7095;51.388;6.196;2023-03-15T04:29:01;21.97;;;15.03;;
14040;SDS011;7095;51.388;6.196;2023-03-15T04:31:52;24.03;;;15.80;;
14040;SDS011;7095;51.388;6.196;2023-03-15T04:34:50;21.60;;;15.87;;
14040;SDS011;7095;51.388;6.196;2023-03-15T04:37:41;22.43;;;16.20;;
14040;SDS011;7095;51.388;6.196;2023-03-15T04:40:39;22.13;;;15.33;;
14040;SDS011;7095;51.388;6.196;2023-03-15T04:43:37;20.37;;;15.97;;
14040;SDS011;7095;51.388;6.196;2023-03-15T04:46:28;21.73;;;15.37;;
14040;SDS011;7095;51.388;6.196;2023-03-15T04:49:16;20.57;;;15.90;;
14040;SDS011;7095;51.388;6.196;2023-03-15T04:51:56;21.97;;;15.53;;
14040;SDS011;7095;51.388;6.196;2023-03-15T04:54:37;27.43;;;16.70;;
14040;SDS011;7095;51.388;6.196;2023-03-15T04:57:35;22.63;;;16.87;;
14040;SDS011;7095;51.388;6.196;2023-03-15T05:00:36;20.57;;;15.10;;
14040;SDS011;7095;51.388;6.196;2023-03-15T05:03:27;19.10;;;15.37;;
14040;SDS011;7095;51.388;6.196;2023-03-15T05:06:15;22.77;;;15.70;;
14040;SDS011;7095;51.388;6.196;2023-03-15T05:09:08;23.17;;;15.83;;
14040;SDS011;7095;51.388;6.196;2023-03-15T05:11:59;23.83;;;15.93;;
14040;SDS011;7095;51.388;6.196;2023-03-15T05:14:55;20.60;;;15.03;;
14040;SDS011;7095;51.388;6.196;2023-03-15T05:17:41;20.23;;;15.23;;
14040;SDS011;7095;51.388;6.196;2023-03-15T05:20:32;26.33;;;16.63;;
14040;SDS011;7095;51.388;6.196;2023-03-15T05:23:23;23.20;;;15.73;;
14040;SDS011;7095;51.388;6.196;2023-03-15T05:26:08;27.97;;;16.53;;
14040;SDS011;7095;51.388;6.196;2023-03-15T05:28:42;22.27;;;15.53;;
14040;SDS011;7095;51.388;6.196;2023-03-15T05:31:17;22.77;;;15.13;;
14040;SDS011;7095;51.388;6.196;2023-03-15T05:34:12;21.13;;;15.47;;
14040;SDS011;7095;51.388;6.196;2023-03-15T05:36:59;25.07;;;15.90;;
14040;SDS011;7095;51.388;6.196;2023-03-15T05:39:48;25.07;;;15.93;;
14040;SDS011;7095;51.388;6.196;2023-03-15T05:42:37;24.30;;;16.40;;
14040;SDS011;7095;51.388;6.196;2023-03-15T05:45:34;23.43;;;16.60;;
14040;SDS011;7095;51.388;6.196;2023-03-15T05:48:41;26.17;;;17.13;;
14040;SDS011;7095;51.388;6.196;2023-03-15T05:51:30;26.23;;;18.13;;
14040;SDS011;7095;51.388;6.196;2023-03-15T05:54:17;23.83;;;16.07;;
14040;SDS011;7095;51.388;6.196;2023-03-15T05:57:00;24.70;;;17.13;;
14040;SDS011;7095;51.388;6.196;2023-03-15T05:59:35;24.63;;;15.27;;
14040;SDS011;7095;51.388;6.196;2023-03-15T06:02:04;21.37;;;15.37;;
14040;SDS011;7095;51.388;6.196;2023-03-15T06:04:41;23.93;;;17.57;;
14040;SDS011;7095;51.388;6.196;2023-03-15T06:07:14;27.70;;;16.87;;
14040;SDS011;7095;51.388;6.196;2023-03-15T06:09:42;25.70;;;17.40;;
14040;SDS011;7095;51.388;6.196;2023-03-15T06:12:10;24.57;;;17.80;;
14040;SDS011;7095;51.388;6.196;2023-03-15T06:14:41;24.03;;;16.50;;
14040;SDS011;7095;51.388;6.196;2023-03-15T06:17:10;28.47;;;18.03;;
14040;SDS011;7095;51.388;6.196;2023-03-15T06:19:42;26.37;;;17.70;;
14040;SDS011;7095;51.388;6.196;2023-03-15T06:22:10;25.57;;;17.37;;
14040;SDS011;7095;51.388;6.196;2023-03-15T06:24:49;25.03;;;18.27;;
14040;SDS011;7095;51.388;6.196;2023-03-15T06:27:18;26.43;;;17.50;;
14040;SDS011;7095;51.388;6.196;2023-03-15T06:29:51;27.67;;;17.97;;
14040;SDS011;7095;51.388;6.196;2023-03-15T06:32:21;31.57;;;19.87;;
14040;SDS011;7095;51.388;6.196;2023-03-15T06:34:50;26.07;;;17.83;;
14040;SDS011;7095;51.388;6.196;2023-03-15T06:37:19;28.73;;;18.23;;
14040;SDS011;7095;51.388;6.196;2023-03-15T06:40:01;28.23;;;19.97;;
14040;SDS011;7095;51.388;6.196;2023-03-15T06:42:31;31.73;;;19.67;;
14040;SDS011;7095;51.388;6.196;2023-03-15T06:45:02;25.97;;;18.60;;
14040;SDS011;7095;51.388;6.196;2023-03-15T06:47:31;28.53;;;19.43;;
14040;SDS011;7095;51.388;6.196;2023-03-15T06:50:02;28.10;;;19.90;;
14040;SDS011;7095;51.388;6.196;2023-03-15T06:52:32;28.53;;;19.60;;
14040;SDS011;7095;51.388;6.196;2023-03-15T06:55:00;30.47;;;20.33;;
14040;SDS011;7095;51.388;6.196;2023-03-15T06:57:29;32.07;;;20.57;;
14040;SDS011;7095;51.388;6.196;2023-03-15T06:59:58;35.60;;;21.60;;
14040;SDS011;7095;51.388;6.196;2023-03-15T07:02:28;31.63;;;22.13;;
14040;SDS011;7095;51.388;6.196;2023-03-15T07:05:02;30.13;;;20.77;;
14040;SDS011;7095;51.388;6.196;2023-03-15T07:07:32;32.50;;;21.67;;
14040;SDS011;7095;51.388;6.196;2023-03-15T07:10:00;29.97;;;20.13;;
14040;SDS011;7095;51.388;6.196;2023-03-15T07:12:29;28.43;;;20.00;;
14040;SDS011;7095;51.388;6.196;2023-03-15T07:14:57;33.63;;;21.03;;
14040;SDS011;7095;51.388;6.196;2023-03-15T07:17:27;29.67;;;21.43;;
14040;SDS011;7095;51.388;6.196;2023-03-15T07:19:56;35.50;;;21.50;;
14040;SDS011;7095;51.388;6.196;2023-03-15T07:22:24;32.30;;;22.03;;
14040;SDS011;7095;51.388;6.196;2023-03-15T07:24:53;35.63;;;22.67;;
14040;SDS011;7095;51.388;6.196;2023-03-15T07:27:22;34.80;;;22.00;;
14040;SDS011;7095;51.388;6.196;2023-03-15T07:29:50;35.60;;;23.37;;
14040;SDS011;7095;51.388;6.196;2023-03-15T07:32:21;35.03;;;22.97;;
14040;SDS011;7095;51.388;6.196;2023-03-15T07:34:51;34.70;;;23.00;;
14040;SDS011;7095;51.388;6.196;2023-03-15T07:37:24;42.80;;;24.57;;
14040;SDS011;7095;51.388;6.196;2023-03-15T07:39:52;38.23;;;23.70;;
14040;SDS011;7095;51.388;6.196;2023-03-15T07:42:21;34.40;;;23.57;;
14040;SDS011;7095;51.388;6.196;2023-03-15T07:44:54;34.73;;;23.07;;
14040;SDS011;7095;51.388;6.196;2023-03-15T07:47:23;32.70;;;22.47;;
14040;SDS011;7095;51.388;6.196;2023-03-15T07:49:52;33.70;;;22.10;;
14040;SDS011;7095;51.388;6.196;2023-03-15T07:52:21;34.77;;;23.80;;
14040;SDS011;7095;51.388;6.196;2023-03-15T07:54:50;33.77;;;22.93;;
14040;SDS011;7095;51.388;6.196;2023-03-15T07:57:19;34.40;;;22.53;;
14040;SDS011;7095;51.388;6.196;2023-03-15T07:59:47;35.70;;;23.03;;
14040;SDS011;7095;51.388;6.196;2023-03-15T08:02:18;29.03;;;20.77;;
14040;SDS011;7095;51.388;6.196;2023-03-15T08:04:46;38.40;;;23.17;;
14040;SDS011;7095;51.388;6.196;2023-03-15T08:07:18;32.70;;;21.37;;
14040;SDS011;7095;51.388;6.196;2023-03-15T08:09:46;36.27;;;21.43;;
14040;SDS011;7095;51.388;6.196;2023-03-15T08:12:15;32.27;;;20.90;;
14040;SDS011;7095;51.388;6.196;2023-03-15T08:14:43;28.27;;;18.60;;
14040;SDS011;7095;51.388;6.196;2023-03-15T08:17:12;28.90;;;18.70;;
14040;SDS011;7095;51.388;6.196;2023-03-15T08:19:42;27.33;;;18.63;;
14040;SDS011;7095;51.388;6.196;2023-03-15T08:22:11;30.70;;;19.03;;
14040;SDS011;7095;51.388;6.196;2023-03-15T08:24:41;27.77;;;17.20;;
14040;SDS011;7095;51.388;6.196;2023-03-15T08:27:11;26.33;;;17.17;;
14040;SDS011;7095;51.388;6.196;2023-03-15T08:29:39;34.20;;;18.40;;
14040;SDS011;7095;51.388;6.196;2023-03-15T08:32:08;26.17;;;18.30;;
14040;SDS011;7095;51.388;6.196;2023-03-15T08:34:37;26.33;;;16.80;;
14040;SDS011;7095;51.388;6.196;2023-03-15T08:37:05;28.90;;;16.00;;
14040;SDS011;7095;51.388;6.196;2023-03-15T08:39:34;26.17;;;16.57;;
14040;SDS011;7095;51.388;6.196;2023-03-15T08:42:04;21.03;;;14.67;;
14040;SDS011;7095;51.388;6.196;2023-03-15T08:44:33;24.67;;;14.57;;
14040;SDS011;7095;51.388;6.196;2023-03-15T08:47:02;24.37;;;15.47;;
14040;SDS011;7095;51.388;6.196;2023-03-15T08:49:32;21.93;;;14.47;;
14040;SDS011;7095;51.388;6.196;2023-03-15T08:52:01;22.50;;;14.20;;
14040;SDS011;7095;51.388;6.196;2023-03-15T08:54:29;21.87;;;14.07;;
14040;SDS011;7095;51.388;6.196;2023-03-15T08:56:58;29.93;;;15.77;;
14040;SDS011;7095;51.388;6.196;2023-03-15T08:59:28;25.97;;;14.53;;
14040;SDS011;7095;51.388;6.196;2023-03-15T09:01:58;28.57;;;14.03;;
14040;SDS011;7095;51.388;6.196;2023-03-15T09:04:27;25.23;;;14.03;;
14040;SDS011;7095;51.388;6.196;2023-03-15T09:06:56;24.77;;;13.03;;
14040;SDS011;7095;51.388;6.196;2023-03-15T09:09:24;21.27;;;13.47;;
14040;SDS011;7095;51.388;6.196;2023-03-15T09:11:54;20.47;;;10.43;;
14040;SDS011;7095;51.388;6.196;2023-03-15T09:14:22;22.30;;;10.53;;
14040;SDS011;7095;51.388;6.196;2023-03-15T09:16:52;19.13;;;9.60;;
14040;SDS011;7095;51.388;6.196;2023-03-15T09:19:21;17.53;;;10.43;;
14040;SDS011;7095;51.388;6.196;2023-03-15T09:21:49;22.20;;;10.47;;
14040;SDS011;7095;51.388;6.196;2023-03-15T09:24:18;20.70;;;8.80;;
14040;SDS011;7095;51.388;6.196;2023-03-15T09:26:46;11.00;;;6.93;;
14040;SDS011;7095;51.388;6.196;2023-03-15T09:29:15;16.87;;;8.80;;
14040;SDS011;7095;51.388;6.196;2023-03-15T09:31:43;15.53;;;8.87;;
14040;SDS011;7095;51.388;6.196;2023-03-15T09:34:13;17.73;;;8.80;;
14040;SDS011;7095;51.388;6.196;2023-03-15T09:36:42;12.23;;;6.93;;
14040;SDS011;7095;51.388;6.196;2023-03-15T09:39:14;12.60;;;4.83;;
14040;SDS011;7095;51.388;6.196;2023-03-15T09:41:43;16.33;;;5.17;;
14040;SDS011;7095;51.388;6.196;2023-03-15T09:44:15;12.67;;;4.27;;
14040;SDS011;7095;51.388;6.196;2023-03-15T09:46:59;10.93;;;4.73;;
14040;SDS011;7095;51.388;6.196;2023-03-15T09:49:40;9.83;;;4.20;;
14040;SDS011;7095;51.388;6.196;2023-03-15T09:52:18;13.10;;;3.70;;
14040;SDS011;7095;51.388;6.196;2023-03-15T09:54:55;15.83;;;4.53;;
14040;SDS011;7095;51.388;6.196;2023-03-15T09:57:30;9.07;;;4.80;;
14040;SDS011;7095;51.388;6.196;2023-03-15T10:00:09;10.70;;;4.57;;
14040;SDS011;7095;51.388;6.196;2023-03-15T10:02:44;12.40;;;4.83;;
14040;SDS011;7095;51.388;6.196;2023-03-15T10:05:21;14.73;;;5.03;;
14040;SDS011;7095;51.388;6.196;2023-03-15T10:07:53;15.03;;;5.70;;
14040;SDS011;7095;51.388;6.196;2023-03-15T10:10:22;16.13;;;6.03;;
14040;SDS011;7095;51.388;6.196;2023-03-15T10:12:58;12.50;;;4.23;;
14040;SDS011;7095;51.388;6.196;2023-03-15T10:15:36;11.00;;;3.37;;
14040;SDS011;7095;51.388;6.196;2023-03-15T10:18:14;7.73;;;2.93;;
14040;SDS011;7095;51.388;6.196;2023-03-15T10:20:57;10.57;;;2.63;;
14040;SDS011;7095;51.388;6.196;2023-03-15T10:23:37;10.67;;;2.93;;
14040;SDS011;7095;51.388;6.196;2023-03-15T10:26:13;12.33;;;3.17;;
14040;SDS011;7095;51.388;6.196;2023-03-15T10:28:45;8.53;;;2.70;;
14040;SDS011;7095;51.388;6.196;2023-03-15T10:31:15;9.67;;;2.40;;
14040;SDS011;7095;51.388;6.196;2023-03-15T10:34:08;7.70;;;2.17;;
14040;SDS011;7095;51.388;6.196;2023-03-15T10:36:40;13.20;;;3.40;;
14040;SDS011;7095;51.388;6.196;2023-03-15T10:39:12;9.90;;;2.70;;
14040;SDS011;7095;51.388;6.196;2023-03-15T10:41:41;8.20;;;2.73;;
14040;SDS011;7095;51.388;6.196;2023-03-15T10:44:12;12.07;;;3.33;;
14040;SDS011;7095;51.388;6.196;2023-03-15T10:46:48;7.60;;;2.60;;
14040;SDS011;7095;51.388;6.196;2023-03-15T10:49:36;13.93;;;2.70;;
14040;SDS011;7095;51.388;6.196;2023-03-15T10:52:23;6.90;;;2.10;;
14040;SDS011;7095;51.388;6.196;2023-03-15T10:54:58;11.53;;;2.47;;
14040;SDS011;7095;51.388;6.196;2023-03-15T10:57:32;6.00;;;2.03;;
14040;SDS011;7095;51.388;6.196;2023-03-15T11:00:06;8.27;;;2.37;;
14040;SDS011;7095;51.388;6.196;2023-03-15T11:02:51;12.37;;;2.77;;
14040;SDS011;7095;51.388;6.196;2023-03-15T11:05:31;6.70;;;2.27;;
14040;SDS011;7095;51.388;6.196;2023-03-15T11:08:11;8.57;;;2.20;;
14040;SDS011;7095;51.388;6.196;2023-03-15T11:10:42;6.10;;;2.20;;
14040;SDS011;7095;51.388;6.196;2023-03-15T11:13:17;8.87;;;2.90;;
14040;SDS011;7095;51.388;6.196;2023-03-15T11:15:52;7.47;;;2.60;;
14040;SDS011;7095;51.388;6.196;2023-03-15T11:18:28;11.97;;;3.03;;
14040;SDS011;7095;51.388;6.196;2023-03-15T11:21:00;7.93;;;2.40;;
14040;SDS011;7095;51.388;6.196;2023-03-15T11:23:34;10.33;;;2.33;;
14040;SDS011;7095;51.388;6.196;2023-03-15T11:26:07;6.73;;;1.87;;
14040;SDS011;7095;51.388;6.196;2023-03-15T11:28:57;5.13;;;2.07;;
14040;SDS011;7095;51.388;6.196;2023-03-15T11:31:28;11.53;;;2.27;;
14040;SDS011;7095;51.388;6.196;2023-03-15T11:33:58;4.50;;;1.50;;
14040;SDS011;7095;51.388;6.196;2023-03-15T11:36:31;5.47;;;1.73;;
14040;SDS011;7095;51.388;6.196;2023-03-15T11:39:05;6.50;;;1.77;;
14040;SDS011;7095;51.388;6.196;2023-03-15T11:41:38;4.77;;;1.20;;
14040;SDS011;7095;51.388;6.196;2023-03-15T11:44:12;7.23;;;1.93;;
14040;SDS011;7095;51.388;6.196;2023-03-15T11:46:51;7.47;;;2.27;;
14040;SDS011;7095;51.388;6.196;2023-03-15T11:49:28;7.07;;;2.03;;
14040;SDS011;7095;51.388;6.196;2023-03-15T11:52:02;6.00;;;1.97;;
14040;SDS011;7095;51.388;6.196;2023-03-15T11:54:33;9.70;;;2.20;;
14040;SDS011;7095;51.388;6.196;2023-03-15T11:57:03;4.47;;;1.93;;
14040;SDS011;7095;51.388;6.196;2023-03-15T11:59:33;5.73;;;2.23;;
14040;SDS011;7095;51.388;6.196;2023-03-15T12:05:04;9.23;;;2.20;;
14040;SDS011;7095;51.388;6.196;2023-03-15T12:10:46;5.67;;;1.47;;
14040;SDS011;7095;51.388;6.196;2023-03-15T12:13:21;7.73;;;2.47;;
14040;SDS011;7095;51.388;6.196;2023-03-15T12:15:52;8.27;;;2.27;;
14040;SDS011;7095;51.388;6.196;2023-03-15T12:18:26;4.30;;;2.03;;
14040;SDS011;7095;51.388;6.196;2023-03-15T12:21:05;6.27;;;2.30;;
14040;SDS011;7095;51.388;6.196;2023-03-15T12:23:38;9.50;;;2.20;;
14040;SDS011;7095;51.388;6.196;2023-03-15T12:26:21;6.93;;;2.10;;
14040;SDS011;7095;51.388;6.196;2023-03-15T12:28:54;5.13;;;1.43;;
14040;SDS011;7095;51.388;6.196;2023-03-15T12:31:42;5.87;;;1.50;;
14040;SDS011;7095;51.388;6.196;2023-03-15T12:34:13;5.90;;;1.97;;
14040;SDS011;7095;51.388;6.196;2023-03-15T12:36:50;6.13;;;1.63;;
14040;SDS011;7095;51.388;6.196;2023-03-15T12:39:34;7.40;;;2.03;;
14040;SDS011;7095;51.388;6.196;2023-03-15T12:42:13;5.97;;;1.60;;
14040;SDS011;7095;51.388;6.196;2023-03-15T12:45:42;4.33;;;1.50;;
14040;SDS011;7095;51.388;6.196;2023-03-15T12:54:10;4.90;;;1.90;;
14040;SDS011;7095;51.388;6.196;2023-03-15T12:56:43;5.47;;;1.60;;
14040;SDS011;7095;51.388;6.196;2023-03-15T12:59:29;10.57;;;2.00;;
14040;SDS011;7095;51.388;6.196;2023-03-15T13:02:01;7.50;;;2.23;;
14040;SDS011;7095;51.388;6.196;2023-03-15T13:04:30;6.20;;;1.83;;
14040;SDS011;7095;51.388;6.196;2023-03-15T13:07:20;6.73;;;2.30;;
14040;SDS011;7095;51.388;6.196;2023-03-15T13:10:02;7.17;;;1.87;;
14040;SDS011;7095;51.388;6.196;2023-03-15T13:12:50;6.23;;;2.20;;
14040;SDS011;7095;51.388;6.196;2023-03-15T13:15:26;8.83;;;2.00;;
14040;SDS011;7095;51.388;6.196;2023-03-15T13:18:02;6.10;;;2.03;;
14040;SDS011;7095;51.388;6.196;2023-03-15T13:20:49;5.80;;;1.90;;
14040;SDS011;7095;51.388;6.196;2023-03-15T13:23:26;5.97;;;2.37;;
14040;SDS011;7095;51.388;6.196;2023-03-15T13:26:07;5.53;;;1.87;;
14040;SDS011;7095;51.388;6.196;2023-03-15T13:28:47;5.20;;;1.93;;
14040;SDS011;7095;51.388;6.196;2023-03-15T13:31:20;4.23;;;1.90;;
14040;SDS011;7095;51.388;6.196;2023-03-15T13:33:51;4.00;;;1.33;;
14040;SDS011;7095;51.388;6.196;2023-03-15T13:36:24;3.97;;;1.63;;
14040;SDS011;7095;51.388;6.196;2023-03-15T13:38:54;3.70;;;1.70;;
14040;SDS011;7095;51.388;6.196;2023-03-15T13:41:24;11.93;;;2.13;;
14040;SDS011;7095;51.388;6.196;2023-03-15T13:43:55;5.20;;;1.93;;
14040;SDS011;7095;51.388;6.196;2023-03-15T13:46:28;4.60;;;1.53;;
14040;SDS011;7095;51.388;6.196;2023-03-15T13:48:59;5.37;;;1.57;;
14040;SDS011;7095;51.388;6.196;2023-03-15T13:51:29;7.03;;;2.10;;
14040;SDS011;7095;51.388;6.196;2023-03-15T13:54:00;3.80;;;1.83;;
14040;SDS011;7095;51.388;6.196;2023-03-15T13:56:31;9.20;;;2.13;;
14040;SDS011;7095;51.388;6.196;2023-03-15T13:59:15;4.83;;;1.97;;
14040;SDS011;7095;51.388;6.196;2023-03-15T14:01:47;4.00;;;1.80;;
14040;SDS011;7095;51.388;6.196;2023-03-15T14:04:19;5.20;;;2.10;;
14040;SDS011;7095;51.388;6.196;2023-03-15T14:06:50;8.03;;;2.10;;
14040;SDS011;7095;51.388;6.196;2023-03-15T14:09:33;4.87;;;2.20;;
14040;SDS011;7095;51.388;6.196;2023-03-15T14:12:03;4.40;;;1.73;;
14040;SDS011;7095;51.388;6.196;2023-03-15T14:14:35;10.13;;;2.10;;
14040;SDS011;7095;51.388;6.196;2023-03-15T14:17:15;5.23;;;1.80;;
14040;SDS011;7095;51.388;6.196;2023-03-15T14:19:50;9.10;;;2.10;;
14040;SDS011;7095;51.388;6.196;2023-03-15T14:22:21;6.83;;;2.37;;
14040;SDS011;7095;51.388;6.196;2023-03-15T14:24:50;4.57;;;1.97;;
14040;SDS011;7095;51.388;6.196;2023-03-15T14:27:20;7.67;;;1.93;;
14040;SDS011;7095;51.388;6.196;2023-03-15T14:29:53;4.93;;;1.93;;
14040;SDS011;7095;51.388;6.196;2023-03-15T14:32:27;5.30;;;1.70;;
14040;SDS011;7095;51.388;6.196;2023-03-15T14:35:00;7.00;;;2.07;;
14040;SDS011;7095;51.388;6.196;2023-03-15T14:37:32;10.33;;;2.00;;
14040;SDS011;7095;51.388;6.196;2023-03-15T14:40:15;4.27;;;1.90;;
14040;SDS011;7095;51.388;6.196;2023-03-15T14:42:47;10.00;;;2.07;;
14040;SDS011;7095;51.388;6.196;2023-03-15T14:45:17;5.83;;;2.20;;
14040;SDS011;7095;51.388;6.196;2023-03-15T14:47:49;8.47;;;1.93;;
14040;SDS011;7095;51.388;6.196;2023-03-15T14:50:24;7.03;;;2.00;;
14040;SDS011;7095;51.388;6.196;2023-03-15T14:52:54;4.83;;;1.73;;
14040;SDS011;7095;51.388;6.196;2023-03-15T14:55:27;3.03;;;1.50;;
14040;SDS011;7095;51.388;6.196;2023-03-15T14:57:59;5.83;;;2.10;;
14040;SDS011;7095;51.388;6.196;2023-03-15T15:00:28;4.60;;;1.73;;
14040;SDS011;7095;51.388;6.196;2023-03-15T15:02:58;4.63;;;1.87;;
14040;SDS011;7095;51.388;6.196;2023-03-15T15:05:27;3.13;;;1.37;;
14040;SDS011;7095;51.388;6.196;2023-03-15T15:08:01;4.77;;;1.50;;
14040;SDS011;7095;51.388;6.196;2023-03-15T15:10:31;2.87;;;1.60;;
14040;SDS011;7095;51.388;6.196;2023-03-15T15:13:00;3.93;;;1.70;;
14040;SDS011;7095;51.388;6.196;2023-03-15T15:15:32;4.70;;;1.70;;
14040;SDS011;7095;51.388;6.196;2023-03-15T15:18:22;7.97;;;1.97;;
14040;SDS011;7095;51.388;6.196;2023-03-15T15:20:51;5.40;;;2.47;;
14040;SDS011;7095;51.388;6.196;2023-03-15T15:23:22;5.30;;;1.90;;
14040;SDS011;7095;51.388;6.196;2023-03-15T15:25:55;4.00;;;1.47;;
14040;SDS011;7095;51.388;6.196;2023-03-15T15:28:25;3.30;;;1.83;;
14040;SDS011;7095;51.388;6.196;2023-03-15T15:31:04;7.40;;;2.00;;
14040;SDS011;7095;51.388;6.196;2023-03-15T15:33:34;3.50;;;1.80;;
14040;SDS011;7095;51.388;6.196;2023-03-15T15:36:05;2.83;;;1.10;;
14040;SDS011;7095;51.388;6.196;2023-03-15T15:38:38;4.10;;;1.70;;